Alpha, Ohio
Current Conditions -  °F | °C
As of 11:58 AM on Sunday 23 Nov 2014 (Local Time) from KFFO Reporting Station
Broken Clouds Broken Clouds  
Wind Chill: 16°   Ceiling: 12000
Heat Index: 16°   Visibility: 10mi
Dew Point:   Wind: 13mph
Humidity: 50%   Direction: 160°SSE
Pressure: 29.86"   Gusts: NA
Location:  39.71°N, 84.02°W
Report Text: KFFO 231658Z 16011KT 10SM SCT045 BKN120 BKN250 16/06 A2986 RMK AO2A PRESFR SLP114 T01600057
Loading
Personal Weather Stations






























Interactive Weather Map New forecast layout! Learn more

10-Day Weather Forecast

Advertisements
Track Severe Weather on mobile